sensor_id;sensor_type;location;lat;lon;timestamp;P1;durP1;ratioP1;P2;durP2;ratioP2
59314;SDS011;46521;50.160;20.802;2023-02-01T00:08:16;9.25;;;4.65;;
59314;SDS011;46521;50.160;20.802;2023-02-01T00:18:18;10.30;;;4.95;;
59314;SDS011;46521;50.160;20.802;2023-02-01T00:28:20;8.93;;;4.03;;
59314;SDS011;46521;50.160;20.802;2023-02-01T00:38:22;10.35;;;5.00;;
59314;SDS011;46521;50.160;20.802;2023-02-01T00:48:24;10.10;;;4.90;;
59314;SDS011;46521;50.160;20.802;2023-02-01T00:58:26;9.80;;;4.40;;
59314;SDS011;46521;50.160;20.802;2023-02-01T01:08:28;10.00;;;5.10;;
59314;SDS011;46521;50.160;20.802;2023-02-01T01:18:30;11.80;;;4.60;;
59314;SDS011;46521;50.160;20.802;2023-02-01T01:38:35;10.20;;;4.90;;
59314;SDS011;46521;50.160;20.802;2023-02-01T01:48:36;8.90;;;4.90;;
59314;SDS011;46521;50.160;20.802;2023-02-01T01:58:38;10.35;;;5.00;;
59314;SDS011;46521;50.160;20.802;2023-02-01T02:08:40;8.40;;;4.00;;
59314;SDS011;46521;50.160;20.802;2023-02-01T02:49:34;8.75;;;3.40;;
59314;SDS011;46521;50.160;20.802;2023-02-01T02:59:40;9.85;;;3.40;;
59314;SDS011;46521;50.160;20.802;2023-02-01T03:10:05;7.70;;;2.70;;
59314;SDS011;46521;50.160;20.802;2023-02-01T03:20:11;6.30;;;2.40;;
59314;SDS011;46521;50.160;20.802;2023-02-01T03:30:17;6.27;;;2.30;;
59314;SDS011;46521;50.160;20.802;2023-02-01T03:40:30;7.40;;;2.40;;
59314;SDS011;46521;50.160;20.802;2023-02-01T03:50:38;6.45;;;2.10;;
59314;SDS011;46521;50.160;20.802;2023-02-01T04:00:56;9.30;;;2.00;;
59314;SDS011;46521;50.160;20.802;2023-02-01T04:10:59;7.30;;;2.10;;
59314;SDS011;46521;50.160;20.802;2023-02-01T04:21:01;5.50;;;1.70;;
59314;SDS011;46521;50.160;20.802;2023-02-01T04:31:03;7.80;;;1.77;;
59314;SDS011;46521;50.160;20.802;2023-02-01T04:41:04;7.20;;;2.20;;
59314;SDS011;46521;50.160;20.802;2023-02-01T04:51:06;5.00;;;1.97;;
59314;SDS011;46521;50.160;20.802;2023-02-01T05:01:07;4.85;;;1.75;;
59314;SDS011;46521;50.160;20.802;2023-02-01T05:11:09;8.60;;;2.00;;
59314;SDS011;46521;50.160;20.802;2023-02-01T05:21:31;5.80;;;1.70;;
59314;SDS011;46521;50.160;20.802;2023-02-01T05:31:32;9.57;;;2.67;;
59314;SDS011;46521;50.160;20.802;2023-02-01T05:41:34;9.20;;;2.40;;
59314;SDS011;46521;50.160;20.802;2023-02-01T05:51:35;8.65;;;3.05;;
59314;SDS011;46521;50.160;20.802;2023-02-01T06:01:37;11.80;;;3.10;;
59314;SDS011;46521;50.160;20.802;2023-02-01T06:11:39;9.65;;;2.45;;
59314;SDS011;46521;50.160;20.802;2023-02-01T06:21:42;7.00;;;2.45;;
59314;SDS011;46521;50.160;20.802;2023-02-01T06:31:43;7.35;;;2.50;;
59314;SDS011;46521;50.160;20.802;2023-02-01T06:41:45;9.65;;;3.30;;
59314;SDS011;46521;50.160;20.802;2023-02-01T06:51:50;9.50;;;3.40;;
59314;SDS011;46521;50.160;20.802;2023-02-01T07:01:52;9.85;;;4.15;;
59314;SDS011;46521;50.160;20.802;2023-02-01T07:11:53;11.55;;;4.35;;
59314;SDS011;46521;50.160;20.802;2023-02-01T07:21:55;10.75;;;3.70;;
59314;SDS011;46521;50.160;20.802;2023-02-01T07:31:56;11.85;;;6.30;;
59314;SDS011;46521;50.160;20.802;2023-02-01T07:41:58;10.10;;;4.10;;
59314;SDS011;46521;50.160;20.802;2023-02-01T07:52:00;10.60;;;4.70;;
59314;SDS011;46521;50.160;20.802;2023-02-01T08:02:02;10.35;;;4.30;;
59314;SDS011;46521;50.160;20.802;2023-02-01T08:12:03;12.80;;;4.65;;
59314;SDS011;46521;50.160;20.802;2023-02-01T08:22:05;9.30;;;3.40;;
59314;SDS011;46521;50.160;20.802;2023-02-01T08:32:07;9.00;;;4.10;;
59314;SDS011;46521;50.160;20.802;2023-02-01T08:42:09;11.35;;;5.10;;
59314;SDS011;46521;50.160;20.802;2023-02-01T08:52:29;8.40;;;3.90;;
59314;SDS011;46521;50.160;20.802;2023-02-01T09:02:31;9.75;;;2.95;;
59314;SDS011;46521;50.160;20.802;2023-02-01T09:12:33;10.65;;;4.10;;
59314;SDS011;46521;50.160;20.802;2023-02-01T09:22:35;12.10;;;4.05;;
59314;SDS011;46521;50.160;20.802;2023-02-01T09:32:36;8.50;;;3.00;;
59314;SDS011;46521;50.160;20.802;2023-02-01T09:53:02;10.70;;;5.00;;
59314;SDS011;46521;50.160;20.802;2023-02-01T10:03:12;10.70;;;4.10;;
59314;SDS011;46521;50.160;20.802;2023-02-01T10:23:28;8.60;;;3.40;;
59314;SDS011;46521;50.160;20.802;2023-02-01T10:33:44;8.80;;;3.05;;
59314;SDS011;46521;50.160;20.802;2023-02-01T10:43:53;9.20;;;3.10;;
59314;SDS011;46521;50.160;20.802;2023-02-01T10:54:00;5.75;;;2.35;;
59314;SDS011;46521;50.160;20.802;2023-02-01T11:04:10;7.95;;;3.35;;
59314;SDS011;46521;50.160;20.802;2023-02-01T11:14:18;8.60;;;3.70;;
59314;SDS011;46521;50.160;20.802;2023-02-01T11:34:33;11.95;;;4.25;;
59314;SDS011;46521;50.160;20.802;2023-02-01T11:44:44;8.60;;;3.20;;
59314;SDS011;46521;50.160;20.802;2023-02-01T11:55:01;14.00;;;4.50;;
59314;SDS011;46521;50.160;20.802;2023-02-01T12:46:21;8.40;;;3.40;;
59314;SDS011;46521;50.160;20.802;2023-02-01T12:56:35;7.85;;;3.40;;
59314;SDS011;46521;50.160;20.802;2023-02-01T13:06:47;7.90;;;3.10;;
59314;SDS011;46521;50.160;20.802;2023-02-01T13:17:05;7.20;;;3.20;;
59314;SDS011;46521;50.160;20.802;2023-02-01T13:27:14;9.75;;;3.70;;
59314;SDS011;46521;50.160;20.802;2023-02-01T13:37:23;11.90;;;4.80;;
59314;SDS011;46521;50.160;20.802;2023-02-01T13:47:34;15.20;;;7.20;;
59314;SDS011;46521;50.160;20.802;2023-02-01T13:57:41;12.30;;;6.20;;
59314;SDS011;46521;50.160;20.802;2023-02-01T14:28:40;8.10;;;3.30;;
59314;SDS011;46521;50.160;20.802;2023-02-01T14:39:03;12.60;;;4.35;;
59314;SDS011;46521;50.160;20.802;2023-02-01T14:49:05;10.75;;;3.70;;
59314;SDS011;46521;50.160;20.802;2023-02-01T14:59:09;9.30;;;3.80;;
59314;SDS011;46521;50.160;20.802;2023-02-01T15:09:31;10.40;;;3.90;;
59314;SDS011;46521;50.160;20.802;2023-02-01T15:19:36;9.40;;;3.90;;
59314;SDS011;46521;50.160;20.802;2023-02-01T15:29:37;13.10;;;4.60;;
59314;SDS011;46521;50.160;20.802;2023-02-01T15:40:00;10.50;;;4.15;;
59314;SDS011;46521;50.160;20.802;2023-02-01T15:50:14;9.40;;;3.95;;
59314;SDS011;46521;50.160;20.802;2023-02-01T16:10:26;8.00;;;3.90;;
59314;SDS011;46521;50.160;20.802;2023-02-01T16:20:29;8.65;;;3.75;;
59314;SDS011;46521;50.160;20.802;2023-02-01T16:30:31;9.10;;;3.80;;
59314;SDS011;46521;50.160;20.802;2023-02-01T16:40:33;8.30;;;3.70;;
59314;SDS011;46521;50.160;20.802;2023-02-01T16:50:34;6.20;;;3.10;;
59314;SDS011;46521;50.160;20.802;2023-02-01T17:00:36;6.95;;;3.50;;
59314;SDS011;46521;50.160;20.802;2023-02-01T17:10:38;8.65;;;4.20;;
59314;SDS011;46521;50.160;20.802;2023-02-01T17:20:39;10.40;;;4.90;;
59314;SDS011;46521;50.160;20.802;2023-02-01T17:30:42;11.20;;;5.45;;
59314;SDS011;46521;50.160;20.802;2023-02-01T17:40:44;11.47;;;6.47;;
59314;SDS011;46521;50.160;20.802;2023-02-01T17:50:46;13.30;;;6.40;;
59314;SDS011;46521;50.160;20.802;2023-02-01T18:10:55;14.10;;;7.85;;
59314;SDS011;46521;50.160;20.802;2023-02-01T18:21:01;12.10;;;6.45;;
59314;SDS011;46521;50.160;20.802;2023-02-01T18:31:03;14.15;;;6.55;;
59314;SDS011;46521;50.160;20.802;2023-02-01T18:41:07;12.30;;;7.20;;
59314;SDS011;46521;50.160;20.802;2023-02-01T18:51:17;11.15;;;6.15;;
59314;SDS011;46521;50.160;20.802;2023-02-01T19:01:20;15.60;;;7.20;;
59314;SDS011;46521;50.160;20.802;2023-02-01T19:11:22;14.80;;;8.20;;
59314;SDS011;46521;50.160;20.802;2023-02-01T19:21:24;15.00;;;7.90;;
59314;SDS011;46521;50.160;20.802;2023-02-01T19:31:25;13.90;;;7.30;;
59314;SDS011;46521;50.160;20.802;2023-02-01T19:41:27;15.47;;;8.07;;
59314;SDS011;46521;50.160;20.802;2023-02-01T19:51:28;15.40;;;8.80;;
59314;SDS011;46521;50.160;20.802;2023-02-01T20:01:30;14.23;;;7.53;;
59314;SDS011;46521;50.160;20.802;2023-02-01T20:11:33;17.80;;;8.80;;
59314;SDS011;46521;50.160;20.802;2023-02-01T20:21:35;13.90;;;8.25;;
59314;SDS011;46521;50.160;20.802;2023-02-01T20:31:42;15.15;;;8.00;;
59314;SDS011;46521;50.160;20.802;2023-02-01T20:41:45;16.15;;;8.10;;
59314;SDS011;46521;50.160;20.802;2023-02-01T20:51:47;13.80;;;7.15;;
59314;SDS011;46521;50.160;20.802;2023-02-01T21:01:48;12.30;;;7.30;;
59314;SDS011;46521;50.160;20.802;2023-02-01T21:11:53;13.80;;;6.20;;
59314;SDS011;46521;50.160;20.802;2023-02-01T21:21:54;15.70;;;7.25;;
59314;SDS011;46521;50.160;20.802;2023-02-01T21:31:56;12.90;;;6.00;;
59314;SDS011;46521;50.160;20.802;2023-02-01T21:41:58;14.55;;;7.00;;
59314;SDS011;46521;50.160;20.802;2023-02-01T21:52:16;13.65;;;6.30;;
59314;SDS011;46521;50.160;20.802;2023-02-01T22:02:18;12.00;;;5.55;;
59314;SDS011;46521;50.160;20.802;2023-02-01T22:12:19;10.75;;;5.35;;
59314;SDS011;46521;50.160;20.802;2023-02-01T22:22:22;10.55;;;5.35;;
59314;SDS011;46521;50.160;20.802;2023-02-01T22:32:23;12.40;;;5.30;;
59314;SDS011;46521;50.160;20.802;2023-02-01T22:42:25;10.20;;;4.90;;
59314;SDS011;46521;50.160;20.802;2023-02-01T22:52:26;10.40;;;4.50;;
59314;SDS011;46521;50.160;20.802;2023-02-01T23:02:28;10.90;;;5.00;;
59314;SDS011;46521;50.160;20.802;2023-02-01T23:12:30;12.80;;;5.10;;
59314;SDS011;46521;50.160;20.802;2023-02-01T23:22:31;9.17;;;4.77;;
59314;SDS011;46521;50.160;20.802;2023-02-01T23:32:34;10.55;;;5.35;;
59314;SDS011;46521;50.160;20.802;2023-02-01T23:42:36;13.43;;;5.93;;
